createdAt,value
2018-12-20T00:01:05.495Z,19.85
2018-12-20T00:03:33.055Z,19.30
2018-12-20T00:06:00.672Z,20.57
2018-12-20T00:08:28.165Z,18.95
2018-12-20T00:10:55.796Z,20.80
2018-12-20T00:13:23.458Z,20.35
2018-12-20T00:15:51.152Z,19.05
2018-12-20T00:18:18.751Z,19.37
2018-12-20T00:20:46.230Z,18.95
2018-12-20T00:23:13.865Z,18.37
2018-12-20T00:25:41.555Z,19.42
2018-12-20T00:28:09.122Z,19.50
2018-12-20T00:30:36.590Z,19.20
2018-12-20T00:33:04.591Z,20.15
2018-12-20T00:35:32.257Z,18.60
2018-12-20T00:37:59.831Z,19.07
2018-12-20T00:40:27.428Z,19.00
2018-12-20T00:42:55.067Z,18.20
2018-12-20T00:45:22.559Z,19.87
2018-12-20T00:47:50.277Z,19.25
2018-12-20T00:50:18.089Z,20.27
2018-12-20T00:52:45.775Z,19.42
2018-12-20T00:55:13.580Z,19.30
2018-12-20T00:57:41.236Z,19.77
2018-12-20T01:00:09.243Z,18.15
2018-12-20T01:02:37.071Z,19.87
2018-12-20T01:05:04.812Z,20.15
2018-12-20T01:07:32.361Z,20.02
2018-12-20T01:09:59.808Z,19.55
2018-12-20T01:12:27.369Z,18.10
2018-12-20T01:14:54.900Z,21.57
2018-12-20T01:17:22.576Z,20.72
2018-12-20T01:19:50.044Z,19.00
2018-12-20T01:22:17.650Z,19.40
2018-12-20T01:24:45.213Z,17.45
2018-12-20T01:27:12.664Z,20.17
2018-12-20T01:29:40.220Z,17.05
2018-12-20T01:32:07.778Z,18.70
2018-12-20T01:34:35.261Z,18.90
2018-12-20T01:37:03.329Z,19.00
2018-12-20T01:39:30.954Z,20.57
2018-12-20T01:41:58.729Z,18.48
2018-12-20T01:44:26.324Z,19.10
2018-12-20T01:46:53.783Z,17.15
2018-12-20T01:49:21.250Z,17.77
2018-12-20T01:51:48.814Z,19.12
2018-12-20T01:54:16.520Z,18.87
2018-12-20T01:56:44.033Z,17.40
2018-12-20T01:59:11.660Z,17.15
2018-12-20T02:01:39.264Z,19.40
2018-12-20T02:04:06.827Z,17.37
2018-12-20T02:06:34.449Z,17.30
2018-12-20T02:09:02.018Z,20.45
2018-12-20T02:11:29.647Z,17.92
2018-12-20T02:13:57.782Z,17.95
2018-12-20T02:16:25.535Z,18.80
2018-12-20T02:18:53.365Z,17.67
2018-12-20T02:21:21.994Z,16.95
2018-12-20T02:23:49.525Z,17.95
2018-12-20T02:26:17.006Z,19.15
2018-12-20T02:28:44.790Z,18.10
2018-12-20T02:31:12.297Z,17.80
2018-12-20T02:33:39.916Z,18.23
2018-12-20T02:36:07.407Z,18.27
2018-12-20T02:38:34.861Z,17.15
2018-12-20T02:41:02.444Z,17.50
2018-12-20T02:43:30.238Z,17.85
2018-12-20T02:45:58.315Z,15.98
2018-12-20T02:48:25.943Z,18.15
2018-12-20T02:50:53.736Z,16.93
2018-12-20T02:53:21.599Z,17.73
2018-12-20T02:55:49.409Z,18.00
2018-12-20T02:58:17.068Z,16.82
2018-12-20T03:00:44.640Z,17.50
2018-12-20T03:03:12.289Z,16.32
2018-12-20T03:05:40.236Z,16.93
2018-12-20T03:08:08.120Z,16.95
2018-12-20T03:10:35.778Z,18.40
2018-12-20T03:13:03.619Z,15.98
2018-12-20T03:15:31.120Z,16.23
2018-12-20T03:17:58.730Z,16.32
2018-12-20T03:20:26.230Z,16.20
2018-12-20T03:22:53.745Z,16.55
2018-12-20T03:25:21.254Z,15.20
2018-12-20T03:27:48.715Z,16.02
2018-12-20T03:30:16.177Z,15.43
2018-12-20T03:32:43.793Z,14.65
2018-12-20T03:35:11.363Z,15.05
2018-12-20T03:37:38.975Z,16.05
2018-12-20T03:40:07.617Z,18.20
2018-12-20T03:42:35.313Z,17.85
2018-12-20T03:45:03.436Z,17.98
2018-12-20T03:47:31.027Z,19.37
2018-12-20T03:49:58.565Z,19.40
2018-12-20T03:52:26.033Z,19.85
2018-12-20T03:54:53.596Z,20.52
2018-12-20T03:57:21.420Z,19.05
2018-12-20T03:59:49.202Z,19.15
2018-12-20T04:02:16.961Z,19.32
2018-12-20T04:04:44.642Z,19.27
2018-12-20T04:07:12.196Z,18.40
2018-12-20T04:09:39.772Z,18.00
2018-12-20T04:12:07.319Z,17.57
2018-12-20T04:14:34.857Z,19.10
2018-12-20T04:17:02.341Z,17.87
2018-12-20T04:19:29.902Z,17.57
2018-12-20T04:21:57.541Z,17.85
2018-12-20T04:24:25.060Z,16.73
2018-12-20T04:26:52.819Z,18.45
2018-12-20T04:29:20.462Z,16.95
2018-12-20T04:31:48.007Z,17.17
2018-12-20T04:34:15.651Z,17.23
2018-12-20T04:36:43.305Z,16.55
2018-12-20T04:39:10.862Z,16.97
2018-12-20T04:41:38.446Z,16.75
2018-12-20T04:44:06.123Z,19.67
2018-12-20T04:46:33.750Z,19.00
2018-12-20T04:49:01.318Z,16.80
2018-12-20T04:51:28.886Z,16.17
2018-12-20T04:53:56.530Z,15.80
2018-12-20T04:56:24.146Z,15.13
2018-12-20T04:58:51.784Z,14.83
2018-12-20T05:01:19.401Z,16.32
2018-12-20T05:03:47.188Z,14.98
2018-12-20T05:06:14.698Z,14.18
2018-12-20T05:08:42.188Z,13.88
2018-12-20T05:11:09.731Z,15.53
2018-12-20T05:13:37.207Z,16.12
2018-12-20T05:16:04.999Z,14.05
2018-12-20T05:18:32.493Z,15.30
2018-12-20T05:21:00.042Z,15.98
2018-12-20T05:23:27.676Z,15.80
2018-12-20T05:25:55.330Z,17.75
2018-12-20T05:28:23.016Z,15.72
2018-12-20T05:30:50.588Z,15.48
2018-12-20T05:33:18.245Z,14.83
2018-12-20T05:35:45.821Z,14.75
2018-12-20T05:38:13.285Z,15.25
2018-12-20T05:40:40.797Z,15.65
2018-12-20T05:43:08.466Z,15.65
2018-12-20T05:45:36.170Z,15.60
2018-12-20T05:48:03.822Z,14.95
2018-12-20T05:50:31.379Z,16.65
2018-12-20T05:52:58.845Z,15.18
2018-12-20T05:55:26.436Z,16.55
2018-12-20T05:57:54.272Z,17.32
2018-12-20T06:00:21.967Z,17.52
2018-12-20T06:02:49.994Z,15.60
2018-12-20T06:05:17.519Z,15.23
2018-12-20T06:07:45.097Z,15.48
2018-12-20T06:10:12.830Z,17.55
2018-12-20T06:12:40.568Z,16.82
2018-12-20T06:15:08.267Z,16.15
2018-12-20T06:17:35.999Z,16.45
2018-12-20T06:20:04.676Z,17.73
2018-12-20T06:22:32.290Z,18.17
2018-12-20T06:24:59.756Z,15.53
2018-12-20T06:27:27.197Z,16.25
2018-12-20T06:29:54.670Z,17.23
2018-12-20T06:32:22.125Z,16.50
2018-12-20T06:34:49.612Z,18.17
2018-12-20T06:37:17.078Z,16.48
2018-12-20T06:39:44.529Z,18.12
2018-12-20T06:42:11.999Z,17.95
2018-12-20T06:44:39.457Z,17.42
2018-12-20T06:47:06.921Z,16.62
2018-12-20T06:52:08.401Z,17.75
2018-12-20T06:54:35.851Z,17.80
2018-12-20T06:57:03.329Z,18.48
2018-12-20T06:59:30.791Z,16.97
2018-12-20T07:01:58.246Z,18.73
2018-12-20T07:04:25.717Z,16.73
2018-12-20T07:06:53.194Z,17.60
2018-12-20T07:09:20.846Z,17.17
2018-12-20T07:11:48.321Z,16.55
2018-12-20T07:14:15.775Z,18.30
2018-12-20T07:16:43.236Z,15.40
2018-12-20T07:19:10.696Z,18.48
2018-12-20T07:21:38.141Z,17.48
2018-12-20T07:24:05.979Z,18.48
2018-12-20T07:26:33.469Z,17.05
2018-12-20T07:29:00.932Z,17.40
2018-12-20T07:31:28.392Z,14.68
2018-12-20T07:33:55.986Z,15.98
2018-12-20T07:36:23.554Z,16.93
2018-12-20T07:38:51.038Z,15.43
2018-12-20T07:41:18.504Z,16.17
2018-12-20T07:43:45.971Z,15.98
2018-12-20T07:46:13.416Z,15.70
2018-12-20T07:48:40.887Z,17.40
2018-12-20T07:51:08.354Z,15.30
2018-12-20T07:53:35.833Z,17.02
2018-12-20T07:56:03.282Z,17.67
2018-12-20T07:58:30.877Z,16.60
2018-12-20T08:00:58.330Z,16.25
2018-12-20T08:03:25.809Z,16.65
2018-12-20T08:05:53.279Z,16.00
2018-12-20T08:08:20.737Z,16.35
2018-12-20T08:10:48.228Z,14.20
2018-12-20T08:13:15.690Z,16.10
2018-12-20T08:15:43.156Z,17.45
2018-12-20T08:18:10.618Z,17.85
2018-12-20T08:20:38.085Z,18.10
2018-12-20T08:23:05.544Z,17.25
2018-12-20T08:25:33.008Z,15.00
2018-12-20T08:28:00.449Z,14.75
2018-12-20T08:30:27.918Z,16.12
2018-12-20T08:32:55.375Z,15.18
2018-12-20T08:35:22.836Z,17.35
2018-12-20T08:37:50.424Z,16.65
2018-12-20T08:40:17.919Z,14.43
2018-12-20T08:42:45.372Z,16.57
2018-12-20T08:45:12.838Z,16.67
2018-12-20T08:47:40.287Z,17.02
2018-12-20T08:50:08.021Z,16.77
2018-12-20T08:52:35.475Z,16.77
2018-12-20T08:55:03.009Z,16.80
2018-12-20T08:57:30.477Z,16.60
2018-12-20T08:59:57.935Z,16.20
2018-12-20T09:02:25.402Z,16.73
2018-12-20T09:04:52.874Z,17.00
2018-12-20T09:07:20.351Z,15.93
2018-12-20T09:09:47.986Z,17.23
2018-12-20T09:12:15.454Z,16.10
2018-12-20T09:14:42.902Z,15.98
2018-12-20T09:17:10.379Z,15.83
2018-12-20T09:19:37.813Z,15.55
2018-12-20T09:22:05.310Z,14.47
2018-12-20T09:24:32.773Z,14.78
2018-12-20T09:27:00.253Z,15.15
2018-12-20T09:29:27.714Z,13.25
2018-12-20T09:31:55.234Z,12.15
2018-12-20T09:34:22.708Z,13.70
2018-12-20T09:36:50.140Z,12.88
2018-12-20T09:39:17.618Z,11.48
2018-12-20T09:41:45.078Z,11.73
2018-12-20T09:44:12.554Z,10.58
2018-12-20T09:48:56.442Z,11.28
2018-12-20T09:51:23.886Z,12.03
2018-12-20T09:53:51.349Z,10.63
2018-12-20T09:56:18.799Z,11.63
2018-12-20T09:58:46.282Z,10.95
2018-12-20T10:01:13.738Z,10.63
2018-12-20T10:03:41.210Z,12.23
2018-12-20T10:06:08.679Z,10.50
2018-12-20T10:08:36.157Z,11.00
2018-12-20T10:11:03.671Z,11.78
2018-12-20T10:13:31.151Z,11.22
2018-12-20T10:15:58.704Z,10.48
2018-12-20T10:18:26.317Z,11.35
2018-12-20T10:20:53.793Z,10.30
2018-12-20T10:23:21.231Z,10.25
2018-12-20T10:25:48.708Z,10.58
2018-12-20T10:28:16.946Z,10.82
2018-12-20T10:30:44.414Z,10.85
2018-12-20T10:33:11.869Z,11.50
2018-12-20T10:35:39.349Z,8.85
2018-12-20T10:38:06.799Z,10.10
2018-12-20T10:40:34.278Z,9.50
2018-12-20T10:43:01.725Z,9.53
2018-12-20T10:45:29.215Z,8.58
2018-12-20T10:47:56.686Z,8.80
2018-12-20T10:50:24.145Z,7.85
2018-12-20T10:52:51.602Z,9.30
2018-12-20T10:55:19.135Z,10.85
2018-12-20T10:57:46.603Z,7.47
2018-12-20T11:00:14.041Z,9.78
2018-12-20T11:02:47.170Z,9.50
2018-12-20T11:05:20.272Z,9.85
2018-12-20T11:07:53.466Z,10.30
2018-12-20T11:10:23.522Z,9.48
2018-12-20T11:12:50.990Z,8.90
2018-12-20T11:15:18.546Z,10.03
2018-12-20T11:17:46.018Z,9.25
2018-12-20T11:20:13.465Z,9.70
2018-12-20T11:22:40.922Z,8.75
2018-12-20T11:25:08.372Z,8.68
2018-12-20T11:27:35.843Z,8.10
2018-12-20T11:30:04.955Z,7.45
2018-12-20T11:32:32.403Z,6.80
2018-12-20T11:34:59.865Z,7.22
2018-12-20T11:37:27.329Z,9.53
2018-12-20T11:39:59.502Z,7.47
2018-12-20T11:42:24.262Z,6.92
2018-12-20T11:44:51.732Z,7.37
2018-12-20T11:47:24.870Z,6.80
2018-12-20T11:49:52.337Z,7.50
2018-12-20T11:52:19.818Z,7.55
2018-12-20T11:54:47.318Z,6.47
2018-12-20T11:57:14.782Z,5.80
2018-12-20T11:59:42.260Z,6.55
2018-12-20T12:02:09.708Z,5.67
2018-12-20T12:04:37.190Z,7.35
2018-12-20T12:07:04.644Z,6.67
2018-12-20T12:09:32.125Z,6.90
2018-12-20T12:11:59.588Z,7.30
2018-12-20T12:14:27.141Z,5.40
2018-12-20T12:16:54.581Z,6.28
2018-12-20T12:19:22.053Z,5.42
2018-12-20T12:21:49.611Z,5.67
2018-12-20T12:24:17.288Z,6.05
2018-12-20T12:26:44.883Z,6.58
2018-12-20T12:29:12.353Z,4.33
2018-12-20T12:31:39.796Z,5.87
2018-12-20T12:34:07.265Z,5.30
2018-12-20T12:36:34.747Z,5.67
2018-12-20T12:39:02.352Z,4.80
2018-12-20T12:41:29.833Z,4.78
2018-12-20T12:43:57.304Z,4.80
2018-12-20T12:46:24.767Z,4.90
2018-12-20T12:48:52.216Z,5.40
2018-12-20T12:51:19.701Z,5.20
2018-12-20T12:53:47.168Z,5.00
2018-12-20T12:56:14.628Z,5.62
2018-12-20T12:58:42.083Z,7.40
2018-12-20T13:01:09.556Z,7.72
2018-12-20T13:03:37.028Z,4.85
2018-12-20T13:06:04.590Z,4.60
2018-12-20T13:08:32.049Z,7.80
2018-12-20T13:10:59.509Z,5.78
2018-12-20T13:13:26.974Z,5.50
2018-12-20T13:15:54.454Z,5.70
2018-12-20T13:18:21.897Z,4.90
2018-12-20T13:20:49.351Z,5.42
2018-12-20T13:23:16.860Z,4.37
2018-12-20T13:25:44.308Z,4.65
2018-12-20T13:28:11.787Z,4.60
2018-12-20T13:30:39.238Z,5.25
2018-12-20T13:33:06.702Z,4.70
2018-12-20T13:35:34.735Z,6.17
2018-12-20T13:38:02.394Z,4.83
2018-12-20T13:40:29.847Z,5.35
2018-12-20T13:42:57.319Z,5.97
2018-12-20T13:45:24.812Z,6.95
2018-12-20T13:47:53.233Z,10.20
2018-12-20T13:50:20.757Z,6.35
2018-12-20T13:52:48.266Z,6.30
2018-12-20T13:55:15.814Z,3.85
2018-12-20T13:57:43.266Z,7.50
2018-12-20T14:00:12.731Z,4.60
2018-12-20T14:02:40.242Z,7.95
2018-12-20T14:05:07.771Z,7.62
2018-12-20T14:07:35.233Z,7.15
2018-12-20T14:10:02.705Z,8.10
2018-12-20T14:12:30.157Z,6.08
2018-12-20T14:14:57.623Z,4.75
2018-12-20T14:17:25.078Z,6.10
2018-12-20T14:19:52.545Z,6.45
2018-12-20T14:22:20.004Z,7.67
2018-12-20T14:24:47.477Z,9.23
2018-12-20T14:27:14.994Z,6.58
2018-12-20T14:29:42.607Z,7.30
2018-12-20T14:32:10.067Z,5.25
2018-12-20T14:34:37.545Z,4.72
2018-12-20T14:37:04.998Z,4.53
2018-12-20T14:39:32.469Z,3.87
2018-12-20T14:41:59.995Z,5.03
2018-12-20T14:44:27.496Z,4.12
2018-12-20T14:46:54.950Z,4.78
2018-12-20T14:49:22.489Z,3.92
2018-12-20T14:51:49.977Z,3.75
2018-12-20T14:54:17.441Z,3.80
2018-12-20T14:56:44.904Z,4.83
2018-12-20T14:59:12.358Z,4.37
2018-12-20T15:01:39.869Z,5.22
2018-12-20T15:04:07.330Z,5.60
2018-12-20T15:06:34.808Z,5.35
2018-12-20T15:09:02.255Z,4.65
2018-12-20T15:11:29.743Z,4.37
2018-12-20T15:13:57.997Z,4.12
2018-12-20T15:16:25.487Z,4.28
2018-12-20T15:18:52.939Z,4.20
2018-12-20T15:21:20.394Z,3.05
2018-12-20T15:23:47.865Z,3.47
2018-12-20T15:26:15.342Z,3.80
2018-12-20T15:28:42.826Z,112.68
2018-12-20T15:31:10.302Z,120.70
2018-12-20T15:33:37.749Z,8.80
2018-12-20T15:36:05.220Z,4.78
2018-12-20T15:38:32.685Z,3.45
2018-12-20T15:41:02.048Z,3.20
2018-12-20T15:43:29.605Z,3.90
2018-12-20T15:45:57.047Z,4.25
2018-12-20T15:48:24.529Z,6.08
2018-12-20T15:50:51.974Z,9.00
2018-12-20T15:53:19.449Z,8.60
2018-12-20T15:55:46.901Z,7.87
2018-12-20T15:58:14.383Z,6.35
2018-12-20T16:00:41.846Z,4.80
2018-12-20T16:03:09.329Z,4.55
2018-12-20T16:05:36.781Z,5.50
2018-12-20T16:08:06.109Z,4.87
2018-12-20T16:10:33.622Z,7.80
2018-12-20T16:13:01.177Z,6.87
2018-12-20T16:15:28.642Z,5.78
2018-12-20T16:17:56.844Z,7.05
2018-12-20T16:20:24.312Z,5.70
2018-12-20T16:22:51.777Z,4.60
2018-12-20T16:25:19.266Z,6.35
2018-12-20T16:27:46.718Z,5.95
2018-12-20T16:30:14.190Z,6.15
2018-12-20T16:32:41.659Z,6.50
2018-12-20T16:35:09.213Z,6.50
2018-12-20T16:37:36.679Z,5.20
2018-12-20T16:40:05.227Z,5.15
2018-12-20T16:42:32.786Z,5.55
2018-12-20T16:45:00.257Z,5.78
2018-12-20T16:47:27.701Z,5.53
2018-12-20T16:49:55.178Z,5.12
2018-12-20T16:52:22.618Z,5.20
2018-12-20T16:54:50.121Z,5.17
2018-12-20T16:57:17.557Z,5.05
2018-12-20T16:59:45.034Z,4.75
2018-12-20T17:02:12.586Z,5.92
2018-12-20T17:04:40.030Z,4.65
2018-12-20T17:07:07.508Z,4.72
2018-12-20T17:09:35.129Z,4.97
2018-12-20T17:12:02.623Z,26.05
2018-12-20T17:14:30.101Z,23.62
2018-12-20T17:16:57.548Z,19.27
2018-12-20T17:19:25.003Z,22.40
2018-12-20T17:21:52.480Z,15.00
2018-12-20T17:24:19.978Z,6.33
2018-12-20T17:26:47.474Z,7.10
2018-12-20T17:29:14.987Z,5.30
2018-12-20T17:31:42.449Z,5.00
2018-12-20T17:34:09.907Z,5.37
2018-12-20T17:36:37.389Z,4.80
2018-12-20T17:39:06.639Z,6.22
2018-12-20T17:41:35.903Z,5.20
2018-12-20T17:44:04.250Z,4.30
2018-12-20T17:46:32.010Z,4.42
2018-12-20T17:48:59.447Z,7.33
2018-12-20T17:51:26.918Z,6.47
2018-12-20T17:53:54.382Z,5.83
2018-12-20T17:56:21.836Z,3.95
2018-12-20T17:58:49.324Z,8.30
2018-12-20T18:01:16.769Z,5.72
2018-12-20T18:03:44.259Z,4.17
2018-12-20T18:06:11.706Z,4.10
2018-12-20T18:08:39.191Z,4.90
2018-12-20T18:11:06.858Z,3.27
2018-12-20T18:13:34.334Z,3.90
2018-12-20T18:16:02.755Z,6.35
2018-12-20T18:18:30.855Z,5.08
2018-12-20T18:20:58.434Z,4.85
2018-12-20T18:23:26.009Z,5.08
2018-12-20T18:25:53.462Z,4.37
2018-12-20T18:28:20.921Z,4.17
2018-12-20T18:30:49.315Z,3.70
2018-12-20T18:33:16.789Z,5.03
2018-12-20T18:35:44.234Z,5.37
2018-12-20T18:38:11.704Z,5.40
2018-12-20T18:40:39.157Z,6.97
2018-12-20T18:43:06.808Z,6.12
2018-12-20T18:45:34.540Z,5.83
2018-12-20T18:48:02.094Z,4.95
2018-12-20T18:50:29.585Z,4.95
2018-12-20T18:52:57.044Z,4.78
2018-12-20T18:55:24.493Z,4.55
2018-12-20T18:57:51.957Z,5.85
2018-12-20T19:00:19.434Z,5.00
2018-12-20T19:02:46.904Z,6.03
2018-12-20T19:05:14.376Z,6.85
2018-12-20T19:07:41.818Z,6.28
2018-12-20T19:10:09.356Z,5.12
2018-12-20T19:12:37.503Z,4.87
2018-12-20T19:15:06.300Z,4.00
2018-12-20T19:17:33.903Z,4.62
2018-12-20T19:20:01.494Z,4.03
2018-12-20T19:22:29.106Z,3.95
2018-12-20T19:24:56.653Z,3.87
2018-12-20T19:27:24.123Z,3.33
2018-12-20T19:29:51.574Z,4.10
2018-12-20T19:32:19.042Z,4.20
2018-12-20T19:34:46.481Z,3.83
2018-12-20T19:37:13.970Z,3.30
2018-12-20T19:39:41.496Z,4.28
2018-12-20T19:42:10.964Z,3.80
2018-12-20T19:44:38.405Z,4.00
2018-12-20T19:47:05.875Z,3.20
2018-12-20T19:49:33.320Z,4.15
2018-12-20T19:52:00.799Z,5.00
2018-12-20T19:54:28.258Z,3.67
2018-12-20T19:56:55.729Z,3.10
2018-12-20T19:59:23.181Z,3.87
2018-12-20T20:01:50.653Z,2.85
2018-12-20T20:04:18.117Z,3.87
2018-12-20T20:06:45.597Z,3.40
2018-12-20T20:09:13.051Z,3.90
2018-12-20T20:11:40.532Z,3.58
2018-12-20T20:14:07.985Z,3.92
2018-12-20T20:16:35.588Z,3.50
2018-12-20T20:19:03.122Z,3.30
2018-12-20T20:21:30.591Z,3.47
2018-12-20T20:23:58.078Z,3.92
2018-12-20T20:26:25.519Z,4.20
2018-12-20T20:28:52.993Z,3.77
2018-12-20T20:31:20.476Z,3.80
2018-12-20T20:33:47.947Z,4.35
2018-12-20T20:36:15.409Z,3.87
2018-12-20T20:38:42.899Z,4.85
2018-12-20T20:41:10.359Z,4.50
2018-12-20T20:43:37.841Z,4.05
2018-12-20T20:46:05.277Z,3.62
2018-12-20T20:48:32.717Z,3.85
2018-12-20T20:51:00.191Z,3.72
2018-12-20T20:53:27.661Z,3.90
2018-12-20T20:55:55.136Z,3.87
2018-12-20T20:58:22.610Z,4.00
2018-12-20T21:00:50.133Z,3.80
2018-12-20T21:03:17.587Z,3.83
2018-12-20T21:05:45.050Z,4.47
2018-12-20T21:08:12.515Z,5.03
2018-12-20T21:10:39.999Z,5.30
2018-12-20T21:13:07.455Z,3.85
2018-12-20T21:15:34.913Z,4.67
2018-12-20T21:18:02.435Z,4.60
2018-12-20T21:20:30.737Z,4.35
2018-12-20T21:22:58.656Z,4.03
2018-12-20T21:25:26.126Z,4.22
2018-12-20T21:27:53.586Z,3.83
2018-12-20T21:30:21.044Z,3.75
2018-12-20T21:32:48.480Z,3.42
2018-12-20T21:35:15.958Z,3.47
2018-12-20T21:37:43.416Z,3.30
2018-12-20T21:40:11.007Z,3.65
2018-12-20T21:42:38.467Z,3.40
2018-12-20T21:45:06.733Z,3.02
2018-12-20T21:47:34.186Z,3.60
2018-12-20T21:50:01.670Z,2.98
2018-12-20T21:52:29.208Z,3.15
2018-12-20T21:54:56.657Z,2.35
2018-12-20T21:57:24.130Z,2.92
2018-12-20T21:59:51.578Z,2.75
2018-12-20T22:02:19.050Z,3.08
2018-12-20T22:04:46.494Z,2.95
2018-12-20T22:07:13.958Z,3.30
2018-12-20T22:09:41.422Z,5.10
2018-12-20T22:12:08.892Z,5.30
2018-12-20T22:14:36.330Z,4.87
2018-12-20T22:17:03.874Z,4.53
2018-12-20T22:19:31.320Z,5.28
2018-12-20T22:21:58.791Z,3.67
2018-12-20T22:24:26.247Z,3.20
2018-12-20T22:26:53.710Z,2.75
2018-12-20T22:29:21.170Z,3.33
2018-12-20T22:31:48.639Z,3.60
2018-12-20T22:34:16.086Z,3.52
2018-12-20T22:36:43.547Z,3.47
2018-12-20T22:39:11.030Z,2.83
2018-12-20T22:41:38.463Z,3.30
2018-12-20T22:44:05.926Z,2.50
2018-12-20T22:46:33.442Z,2.90
2018-12-20T22:49:00.898Z,3.10
2018-12-20T22:51:28.386Z,3.40
2018-12-20T22:53:55.876Z,3.37
2018-12-20T22:56:23.310Z,3.72
2018-12-20T22:58:50.778Z,3.62
2018-12-20T23:01:18.309Z,3.30
2018-12-20T23:03:45.844Z,3.85
2018-12-20T23:06:13.313Z,3.95
2018-12-20T23:08:40.774Z,4.47
2018-12-20T23:11:08.225Z,5.40
2018-12-20T23:13:35.663Z,4.60
2018-12-20T23:16:03.283Z,4.42
2018-12-20T23:18:30.716Z,5.12
2018-12-20T23:21:04.926Z,5.22
2018-12-20T23:23:27.626Z,4.22
2018-12-20T23:25:55.077Z,3.75
2018-12-20T23:28:22.535Z,3.83
2018-12-20T23:30:50.010Z,3.22
2018-12-20T23:33:17.454Z,2.58
2018-12-20T23:35:44.908Z,2.80
2018-12-20T23:38:12.353Z,3.25
2018-12-20T23:40:39.795Z,2.85
2018-12-20T23:43:07.258Z,3.50
2018-12-20T23:45:34.701Z,3.15
2018-12-20T23:48:02.225Z,3.10
2018-12-20T23:50:29.688Z,3.42
2018-12-20T23:52:57.148Z,2.90
2018-12-20T23:55:24.601Z,3.45
2018-12-20T23:57:52.060Z,3.05
